Reek, Netherlands
Current Conditions -  °F | °C
As of 11:13 PM on Sunday 23 Nov 2014 (Local Time) from EHVK Reporting Station
Overcast Overcast  
Wind Chill: 55°   Ceiling: 1400
Heat Index: 55°   Visibility: 6mi
Dew Point: 50°   Wind: 7mph
Humidity: 82%   Direction: 210°SSW
Pressure: 29.94"   Gusts: NA
Location:  51.75°N, 5.68°E
Report Text: EHVK 232213Z AUTO 21006KT 9999 OVC014 13/10 Q1014 GRN
Loading
Personal Weather Stations






























Interactive Weather Map New forecast layout! Learn more

10-Day Weather Forecast

Advertisements
Track Severe Weather on mobile